Fithian, IL (61844)

7:15 PM CST on February 05, 2016 (GMT -0600)
K9ADL | | Change Station
CLOSE
Current Station
Personal Weather Station
Location: Oakwood, IL
Elevation: 725 ft
Nearby Weather Stations

Elev 725 ft 40.17 °N, 87.77 °W | Updated 6 seconds ago

Overcast
Overcast
27.1 °F
Feels Like 27 °F
N
1.2
Wind Variable Wind from North
Gusts 0.0 mph

Today
High -- | Low -- °F
--% Chance of Precip.
Yesterday
High -- | Low -- °F
Precip. -- in
Pressure 30.33 in
Visibility 10.0 miles
Clouds Overcast 2200 ft
Windchill 27 °F
Dew Point 19 °F
Humidity 72%
Rainfall 0.00 in
Snow Depth Not available.
6:56 AM 5:14 PM
Waning Crescent, 8% visible
METAR KDNV 060055Z AUTO 00000KT 10SM OVC022 M02/M06 A3033 RMK AO2 T10171063
Pressure 30.33 in
Visibility 10.0 miles
Clouds Overcast 2200 ft
Windchill 27 °F
Dew Point 19 °F
Humidity 72%
Rainfall 0.00 in
Snow Depth Not available.
6:56 AM 5:14 PM
Waning Crescent, 8% visible
METAR KDNV 060055Z AUTO 00000KT 10SM OVC022 M02/M06 A3033 RMK AO2 T10171063

10-Day Weather Forecast

Almanac

Astronomy

Feb. 05, 2016 Rise Set
Actual Time
Civil Twilight
Nautical Twilight
Astronomical Twilight
Moon
Length of Visible Light
Length of Day
Tomorrow will be .
, % of the Moon is Illuminated

Today's Extremes

State Highs State Lows

Community

WunderPhotos

Upload Photos

1,890,904 photos uploaded!

WunderBlog® & News

Nearby

Air Quality

  Air Quality AQ Index Pollutant
Not available.

Snow Depth

Station Depth Elevation

Earthquake Activity

City Distance Mag. Time & Date
Minimum magnitude displayed is 2.5.

Coastal Water Temperatures

Place Temperature

Stations

Nearby Weather Stations

Station Location Temp. Windchill Dew Point Humidity Wind Precip. Elev Updated Type
                   

Watches & Warnings

There are currently no watches in effect.